createdAt,value
2024-04-06T00:00:29.603Z,0.90
2024-04-06T00:02:59.802Z,0.70
2024-04-06T00:05:30.017Z,0.70
2024-04-06T00:08:09.573Z,0.70
2024-04-06T00:10:44.058Z,1.20
2024-04-06T00:13:14.918Z,1.00
2024-04-06T00:15:45.346Z,0.90
2024-04-06T00:18:15.517Z,0.80
2024-04-06T00:20:45.686Z,1.10
2024-04-06T00:23:15.940Z,0.60
2024-04-06T00:25:46.134Z,0.70
2024-04-06T00:28:16.333Z,0.80
2024-04-06T00:30:46.452Z,0.80
2024-04-06T00:33:16.641Z,1.00
2024-04-06T00:35:46.840Z,0.60
2024-04-06T00:38:16.935Z,0.80
2024-04-06T00:40:47.250Z,0.70
2024-04-06T00:43:17.455Z,0.70
2024-04-06T00:45:48.010Z,1.10
2024-04-06T00:48:18.204Z,1.30
2024-04-06T00:50:48.701Z,0.80
2024-04-06T00:53:18.840Z,0.90
2024-04-06T00:55:49.260Z,0.80
2024-04-06T00:58:20.819Z,1.00
2024-04-06T01:00:51.343Z,0.90
2024-04-06T01:03:21.662Z,0.90
2024-04-06T01:05:52.275Z,0.50
2024-04-06T01:08:22.826Z,1.10
2024-04-06T01:10:53.239Z,0.50
2024-04-06T01:13:23.569Z,0.60
2024-04-06T01:15:54.234Z,0.60
2024-04-06T01:18:24.542Z,0.80
2024-04-06T01:20:58.265Z,1.00
2024-04-06T01:23:28.498Z,0.90
2024-04-06T01:26:00.358Z,0.90
2024-04-06T01:28:31.527Z,1.10
2024-04-06T01:31:01.700Z,0.90
2024-04-06T01:33:32.259Z,0.60
2024-04-06T01:36:02.531Z,1.00
2024-04-06T01:38:32.763Z,0.80
2024-04-06T01:41:02.992Z,0.90
2024-04-06T01:43:33.205Z,0.90
2024-04-06T01:46:03.377Z,0.60
2024-04-06T01:48:33.540Z,0.80
2024-04-06T01:51:04.001Z,0.90
2024-04-06T01:53:34.296Z,0.90
2024-04-06T01:56:04.970Z,0.90
2024-04-06T01:58:35.188Z,0.90
2024-04-06T02:01:05.848Z,0.60
2024-04-06T02:03:36.580Z,0.70
2024-04-06T02:06:09.858Z,0.70
2024-04-06T02:08:40.443Z,1.00
2024-04-06T02:11:10.652Z,0.80
2024-04-06T02:13:41.255Z,0.70
2024-04-06T02:16:11.671Z,0.70
2024-04-06T02:18:43.806Z,0.70
2024-04-06T02:21:13.972Z,1.00
2024-04-06T02:23:44.228Z,1.00
2024-04-06T02:26:14.479Z,1.20
2024-04-06T02:28:44.678Z,1.00
2024-04-06T02:31:15.074Z,1.00
2024-04-06T02:33:45.369Z,0.90
2024-04-06T02:36:15.580Z,0.80
2024-04-06T02:38:45.753Z,0.80
2024-04-06T02:41:15.968Z,1.10
2024-04-06T02:43:46.169Z,0.70
2024-04-06T02:46:16.325Z,1.20
2024-04-06T02:48:48.618Z,0.90
2024-04-06T02:51:19.221Z,0.70
2024-04-06T02:53:50.388Z,0.80
2024-04-06T02:56:20.622Z,0.70
2024-04-06T02:58:50.746Z,0.90
2024-04-06T03:01:21.059Z,0.90
2024-04-06T03:03:51.290Z,1.10
2024-04-06T03:06:21.507Z,1.00
2024-04-06T03:08:51.725Z,1.10
2024-04-06T03:11:21.979Z,1.20
2024-04-06T03:13:52.514Z,0.80
2024-04-06T03:16:23.050Z,0.80
2024-04-06T03:18:53.250Z,0.70
2024-04-06T03:21:23.423Z,0.90
2024-04-06T03:23:53.647Z,0.80
2024-04-06T03:26:24.115Z,1.00
2024-04-06T03:28:54.344Z,0.80
2024-04-06T03:31:24.669Z,1.00
2024-04-06T03:33:55.688Z,0.80
2024-04-06T03:36:27.912Z,0.80
2024-04-06T03:38:58.372Z,0.80
2024-04-06T03:41:28.716Z,0.90
2024-04-06T03:43:59.036Z,0.90
2024-04-06T03:46:31.773Z,1.10
2024-04-06T03:49:01.919Z,1.30
2024-04-06T03:51:32.199Z,0.90
2024-04-06T03:54:02.361Z,0.90
2024-04-06T03:56:32.806Z,1.10
2024-04-06T03:59:03.027Z,1.00
2024-04-06T04:01:33.230Z,1.40
2024-04-06T04:04:03.464Z,0.70
2024-04-06T04:06:33.677Z,1.40
2024-04-06T04:09:03.909Z,1.00
2024-04-06T04:11:34.241Z,1.50
2024-04-06T04:14:04.641Z,1.20
2024-04-06T04:16:35.194Z,1.20
2024-04-06T04:19:05.496Z,0.80
2024-04-06T04:21:35.811Z,1.40
2024-04-06T04:24:06.861Z,0.90
2024-04-06T04:26:37.089Z,1.30
2024-04-06T04:29:07.272Z,1.00
2024-04-06T04:31:37.537Z,1.20
2024-04-06T04:34:07.807Z,1.10
2024-04-06T04:36:38.043Z,0.80
2024-04-06T04:39:08.172Z,1.00
2024-04-06T04:41:38.636Z,1.40
2024-04-06T04:44:24.784Z,1.30
2024-04-06T04:46:59.084Z,0.80
2024-04-06T04:49:29.688Z,1.00
2024-04-06T04:51:59.928Z,1.10
2024-04-06T04:54:30.443Z,0.80
2024-04-06T04:57:00.991Z,1.00
2024-04-06T04:59:31.466Z,1.10
2024-04-06T05:02:01.819Z,1.00
2024-04-06T05:04:32.014Z,1.00
2024-04-06T05:07:02.251Z,1.10
2024-04-06T05:09:32.698Z,0.90
2024-04-06T05:12:03.756Z,0.90
2024-04-06T05:14:34.068Z,1.10
2024-04-06T05:17:04.611Z,0.70
2024-04-06T05:19:35.948Z,1.30
2024-04-06T05:22:07.263Z,0.80
2024-04-06T05:24:37.413Z,1.10
2024-04-06T05:27:08.170Z,0.80
2024-04-06T05:29:38.624Z,1.30
2024-04-06T05:32:09.989Z,1.10
2024-04-06T05:34:40.432Z,1.40
2024-04-06T05:37:10.853Z,1.70
2024-04-06T05:39:41.196Z,1.20
2024-04-06T05:42:11.468Z,1.10
2024-04-06T05:44:41.686Z,1.40
2024-04-06T05:47:12.125Z,1.40
2024-04-06T05:49:42.322Z,1.30
2024-04-06T05:52:12.731Z,1.40
2024-04-06T05:54:43.353Z,0.80
2024-04-06T05:57:13.968Z,1.00
2024-04-06T05:59:44.201Z,1.00
2024-04-06T06:02:14.635Z,1.00
2024-04-06T06:04:47.621Z,1.10
2024-04-06T06:07:18.007Z,1.10
2024-04-06T06:09:48.763Z,0.80
2024-04-06T06:12:20.320Z,0.90
2024-04-06T06:14:51.355Z,1.00
2024-04-06T06:17:22.446Z,1.30
2024-04-06T06:19:52.726Z,1.00
2024-04-06T06:22:23.270Z,1.00
2024-04-06T06:24:53.654Z,1.90
2024-04-06T06:27:23.921Z,2.40
2024-04-06T06:29:54.578Z,1.00
2024-04-06T06:32:25.096Z,1.50
2024-04-06T06:34:55.271Z,2.00
2024-04-06T06:42:32.095Z,1.20
2024-04-06T06:45:06.841Z,0.90
2024-04-06T06:47:37.116Z,1.20
2024-04-06T06:50:09.637Z,2.90
2024-04-06T06:52:39.762Z,1.00
2024-04-06T06:55:10.461Z,2.00
2024-04-06T06:57:41.166Z,1.50
2024-04-06T07:02:46.655Z,1.10
2024-04-06T07:05:17.277Z,0.80
2024-04-06T07:07:56.217Z,0.80
2024-04-06T07:10:26.466Z,1.00
2024-04-06T07:12:57.456Z,0.80
2024-04-06T07:15:27.629Z,1.10
2024-04-06T07:17:58.621Z,1.20
2024-04-06T07:20:29.091Z,0.90
2024-04-06T07:22:59.305Z,1.00
2024-04-06T07:25:29.844Z,0.80
2024-04-06T07:28:00.079Z,0.80
2024-04-06T07:30:30.412Z,1.10
2024-04-06T07:33:00.765Z,0.90
2024-04-06T07:35:31.040Z,0.70
2024-04-06T07:38:01.252Z,0.90
2024-04-06T07:40:31.728Z,1.20
2024-04-06T07:43:03.662Z,0.80
2024-04-06T07:45:34.196Z,0.80
2024-04-06T07:48:04.743Z,0.90
2024-04-06T07:50:35.514Z,0.80
2024-04-06T07:53:06.015Z,0.90
2024-04-06T07:55:36.401Z,0.70
2024-04-06T07:58:06.874Z,1.20
2024-04-06T08:00:38.009Z,0.90
2024-04-06T08:03:09.118Z,0.60
2024-04-06T08:05:39.380Z,1.20
2024-04-06T08:08:10.087Z,1.00
2024-04-06T08:10:43.246Z,0.80
2024-04-06T08:13:15.064Z,0.90
2024-04-06T08:15:46.495Z,0.80
2024-04-06T08:18:16.803Z,1.00
2024-04-06T08:20:48.244Z,0.90
2024-04-06T08:23:19.356Z,1.10
2024-04-06T08:25:53.955Z,0.90
2024-04-06T08:28:24.300Z,0.70
2024-04-06T08:30:54.528Z,0.80
2024-04-06T08:33:24.807Z,1.00
2024-04-06T08:36:02.185Z,1.00
2024-04-06T08:38:32.321Z,1.20
2024-04-06T08:41:11.245Z,0.90
2024-04-06T08:43:46.018Z,0.90
2024-04-06T08:46:18.209Z,0.90
2024-04-06T08:48:50.554Z,2.00
2024-04-06T08:51:24.186Z,1.00
2024-04-06T08:53:54.743Z,0.90
2024-04-06T08:56:25.400Z,0.90
2024-04-06T08:58:55.709Z,0.60
2024-04-06T09:01:25.963Z,0.90
2024-04-06T09:03:56.279Z,0.70
2024-04-06T09:06:26.672Z,0.70
2024-04-06T09:08:56.925Z,1.00
2024-04-06T09:11:27.177Z,1.20
2024-04-06T09:14:03.573Z,1.20
2024-04-06T09:16:34.846Z,0.70
2024-04-06T09:19:05.270Z,0.90
2024-04-06T09:21:36.370Z,1.20
2024-04-06T09:24:07.859Z,1.20
2024-04-06T09:26:38.152Z,0.70
2024-04-06T09:29:08.446Z,0.70
2024-04-06T09:31:48.633Z,0.70
2024-04-06T09:34:18.805Z,0.80
2024-04-06T09:36:54.765Z,0.60
2024-04-06T09:39:25.474Z,0.70
2024-04-06T09:41:56.588Z,1.30
2024-04-06T09:44:28.772Z,0.70
2024-04-06T09:46:59.019Z,0.60
2024-04-06T09:49:30.003Z,0.50
2024-04-06T09:52:01.309Z,1.00
2024-04-06T09:54:32.887Z,1.30
2024-04-06T09:57:03.443Z,0.80
2024-04-06T09:59:33.920Z,1.00
2024-04-06T10:02:05.368Z,0.70
2024-04-06T10:04:39.650Z,0.50
2024-04-06T10:07:09.827Z,0.70
2024-04-06T10:09:40.036Z,1.00
2024-04-06T10:12:12.687Z,0.90
2024-04-06T10:14:49.197Z,0.60
2024-04-06T10:17:19.491Z,1.00
2024-04-06T10:19:50.122Z,1.40
2024-04-06T10:22:27.104Z,0.80
2024-04-06T10:25:03.450Z,0.80
2024-04-06T10:27:40.913Z,0.90
2024-04-06T10:30:12.102Z,1.10
2024-04-06T10:32:42.824Z,0.90
2024-04-06T10:35:13.940Z,0.90
2024-04-06T10:37:44.191Z,1.00
2024-04-06T10:40:15.115Z,1.20
2024-04-06T10:42:45.401Z,0.90
2024-04-06T10:45:17.558Z,0.90
2024-04-06T10:47:47.929Z,1.00
2024-04-06T10:50:18.242Z,1.00
2024-04-06T10:52:49.655Z,0.90
2024-04-06T10:55:21.927Z,1.20
2024-04-06T10:57:52.396Z,0.70
2024-04-06T11:00:22.714Z,0.80
2024-04-06T11:02:52.929Z,0.90
2024-04-06T11:05:24.027Z,1.00
2024-04-06T11:07:54.260Z,0.90
2024-04-06T11:10:25.309Z,1.10
2024-04-06T11:12:57.861Z,1.10
2024-04-06T11:15:29.050Z,0.90
2024-04-06T11:18:00.380Z,0.80
2024-04-06T11:20:34.642Z,1.20
2024-04-06T11:23:05.429Z,0.70
2024-04-06T11:25:40.784Z,1.00
2024-04-06T11:28:11.083Z,0.90
2024-04-06T11:30:42.727Z,1.10
2024-04-06T11:33:12.907Z,1.00
2024-04-06T11:35:43.188Z,1.40
2024-04-06T11:38:13.514Z,1.00
2024-04-06T11:40:48.166Z,0.90
2024-04-06T11:43:18.557Z,0.80
2024-04-06T11:45:49.260Z,1.10
2024-04-06T11:48:19.727Z,0.90
2024-04-06T11:50:50.056Z,1.00
2024-04-06T11:53:20.294Z,0.60
2024-04-06T11:55:50.643Z,1.20
2024-04-06T11:58:20.903Z,0.70
2024-04-06T12:00:51.250Z,0.80
2024-04-06T12:03:21.751Z,0.90
2024-04-06T12:05:54.499Z,1.00
2024-04-06T12:08:26.161Z,0.90
2024-04-06T12:10:56.602Z,1.10
2024-04-06T12:13:26.781Z,0.90
2024-04-06T12:15:57.063Z,0.90
2024-04-06T12:18:28.039Z,1.00
2024-04-06T12:20:58.264Z,0.90
2024-04-06T12:23:29.124Z,1.00
2024-04-06T12:25:59.870Z,0.90
2024-04-06T12:28:30.398Z,1.10
2024-04-06T12:31:03.493Z,1.10
2024-04-06T12:36:03.080Z,0.90
2024-04-06T12:38:33.658Z,0.90
2024-04-06T12:41:04.107Z,1.30
2024-04-06T12:43:34.372Z,0.90
2024-04-06T12:46:05.253Z,1.30
2024-04-06T12:48:36.324Z,0.80
2024-04-06T12:51:09.984Z,0.90
2024-04-06T12:53:41.127Z,0.80
2024-04-06T12:56:11.685Z,1.20
2024-04-06T12:58:42.962Z,1.00
2024-04-06T13:01:13.719Z,1.00
2024-04-06T13:03:52.714Z,1.70
2024-04-06T13:06:30.280Z,1.20
2024-04-06T13:09:00.749Z,1.10
2024-04-06T13:11:31.005Z,1.20
2024-04-06T13:14:01.249Z,1.00
2024-04-06T13:16:31.579Z,1.00
2024-04-06T13:19:01.818Z,0.70
2024-04-06T13:21:32.017Z,1.20
2024-04-06T13:24:02.700Z,1.10
2024-04-06T13:26:32.921Z,1.20
2024-04-06T13:29:05.086Z,1.20
2024-04-06T13:31:35.717Z,0.90
2024-04-06T13:34:07.572Z,1.10
2024-04-06T13:36:37.830Z,1.20
2024-04-06T13:39:08.916Z,0.70
2024-04-06T13:41:39.191Z,0.90
2024-04-06T13:44:09.477Z,1.20
2024-04-06T13:46:39.749Z,0.90
2024-04-06T13:49:11.850Z,2.20
2024-04-06T13:51:43.107Z,1.40
2024-04-06T13:54:13.430Z,1.00
2024-04-06T13:56:46.082Z,1.20
2024-04-06T13:59:16.608Z,1.20
2024-04-06T14:01:47.322Z,0.90
2024-04-06T14:04:18.770Z,1.20
2024-04-06T14:06:49.234Z,0.90
2024-04-06T14:09:20.000Z,1.00
2024-04-06T14:11:50.288Z,0.90
2024-04-06T14:14:23.247Z,0.90
2024-04-06T14:16:55.080Z,1.20
2024-04-06T14:19:27.071Z,1.00
2024-04-06T14:21:58.133Z,0.80
2024-04-06T14:24:28.469Z,1.30
2024-04-06T14:26:59.544Z,1.00
2024-04-06T14:29:29.875Z,1.10
2024-04-06T14:32:00.394Z,1.10
2024-04-06T14:34:30.603Z,0.90
2024-04-06T14:37:00.902Z,0.80
2024-04-06T14:39:31.164Z,1.10
2024-04-06T14:42:01.472Z,0.90
2024-04-06T14:44:31.889Z,1.70
2024-04-06T14:47:02.548Z,0.70
2024-04-06T14:49:32.763Z,1.20
2024-04-06T14:52:04.472Z,1.00
2024-04-06T14:54:34.816Z,0.90
2024-04-06T14:57:05.973Z,1.40
2024-04-06T14:59:36.216Z,1.00
2024-04-06T15:02:07.423Z,1.00
2024-04-06T15:04:38.134Z,1.50
2024-04-06T15:07:09.235Z,1.40
2024-04-06T15:09:40.687Z,1.00
2024-04-06T15:12:11.792Z,1.00
2024-04-06T15:14:42.066Z,0.90
2024-04-06T15:17:12.569Z,1.10
2024-04-06T15:19:44.011Z,0.90
2024-04-06T15:22:16.881Z,1.20
2024-04-06T15:24:47.848Z,0.90
2024-04-06T15:27:18.037Z,1.20
2024-04-06T15:29:48.285Z,0.80
2024-04-06T15:32:20.353Z,0.80
2024-04-06T15:34:50.613Z,1.10
2024-04-06T15:37:21.772Z,0.90
2024-04-06T15:39:51.999Z,1.10
2024-04-06T15:42:24.432Z,1.10
2024-04-06T15:44:54.694Z,1.20
2024-04-06T15:47:25.081Z,1.40
2024-04-06T15:49:55.247Z,0.80
2024-04-06T15:52:26.270Z,1.20
2024-04-06T15:54:56.677Z,0.90
2024-04-06T15:57:27.013Z,1.30
2024-04-06T15:59:57.679Z,2.10
2024-04-06T16:02:28.033Z,1.90
2024-04-06T16:04:58.512Z,2.00
2024-04-06T16:07:28.747Z,1.20
2024-04-06T16:09:59.068Z,1.20
2024-04-06T16:12:29.500Z,1.10
2024-04-06T16:14:59.795Z,1.30
2024-04-06T16:17:30.058Z,0.80
2024-04-06T16:20:00.394Z,0.90
2024-04-06T16:22:30.820Z,1.00
2024-04-06T16:25:01.174Z,0.80
2024-04-06T16:27:31.487Z,1.30
2024-04-06T16:30:01.876Z,1.10
2024-04-06T16:32:32.104Z,1.00
2024-04-06T16:35:02.302Z,1.20
2024-04-06T16:37:32.556Z,1.10
2024-04-06T16:40:05.445Z,1.30
2024-04-06T16:42:35.830Z,0.80
2024-04-06T16:45:07.562Z,1.20
2024-04-06T16:47:37.969Z,0.80
2024-04-06T16:50:09.099Z,1.40
2024-04-06T16:52:41.410Z,1.00
2024-04-06T16:55:11.971Z,1.20
2024-04-06T16:57:43.334Z,1.10
2024-04-06T17:00:16.296Z,1.70
2024-04-06T17:02:47.630Z,1.60
2024-04-06T17:05:22.176Z,2.70
2024-04-06T17:07:52.644Z,10.60
2024-04-06T17:10:23.256Z,14.50
2024-04-06T17:12:53.794Z,8.20
2024-04-06T17:15:24.140Z,5.10
2024-04-06T17:17:54.388Z,3.20
2024-04-06T17:20:26.301Z,4.40
2024-04-06T17:22:56.918Z,4.80
2024-04-06T17:25:27.231Z,4.30
2024-04-06T17:27:58.368Z,5.70
2024-04-06T17:30:28.654Z,4.40
2024-04-06T17:32:59.390Z,3.20
2024-04-06T17:35:30.402Z,2.70
2024-04-06T17:38:01.860Z,2.90
2024-04-06T17:40:32.245Z,1.80
2024-04-06T17:43:02.578Z,1.20
2024-04-06T17:45:33.009Z,1.10
2024-04-06T17:48:03.369Z,1.30
2024-04-06T17:50:33.858Z,1.70
2024-04-06T17:53:04.286Z,1.50
2024-04-06T17:55:34.535Z,2.30
2024-04-06T17:58:05.468Z,1.80
2024-04-06T18:00:35.806Z,3.10
2024-04-06T18:03:07.962Z,2.70
2024-04-06T18:05:38.266Z,5.00
2024-04-06T18:08:09.501Z,4.40
2024-04-06T18:10:40.844Z,4.60
2024-04-06T18:13:13.534Z,4.70
2024-04-06T18:15:44.684Z,4.90
2024-04-06T18:18:15.084Z,5.60
2024-04-06T18:20:47.043Z,6.10
2024-04-06T18:23:18.031Z,8.50
2024-04-06T18:25:48.295Z,7.00
2024-04-06T18:28:18.855Z,5.70
2024-04-06T18:30:49.166Z,5.20
2024-04-06T18:33:22.691Z,4.90
2024-04-06T18:35:54.647Z,5.50
2024-04-06T18:38:25.806Z,6.00
2024-04-06T18:40:56.330Z,5.90
2024-04-06T18:43:27.939Z,5.80
2024-04-06T18:45:58.454Z,5.50
2024-04-06T18:48:29.361Z,7.60
2024-04-06T18:50:59.728Z,7.80
2024-04-06T18:53:30.782Z,5.80
2024-04-06T18:56:02.164Z,4.90
2024-04-06T18:58:32.384Z,5.00
2024-04-06T19:01:03.172Z,4.30
2024-04-06T19:03:33.948Z,5.00
2024-04-06T19:06:05.000Z,4.40
2024-04-06T19:08:35.846Z,3.70
2024-04-06T19:11:06.690Z,3.90
2024-04-06T19:13:37.027Z,6.50
2024-04-06T19:16:08.667Z,6.70
2024-04-06T19:18:38.973Z,6.80
2024-04-06T19:21:09.299Z,6.60
2024-04-06T19:23:39.907Z,6.10
2024-04-06T19:26:10.306Z,6.00
2024-04-06T19:28:40.634Z,6.20
2024-04-06T19:31:12.241Z,5.60
2024-04-06T19:33:42.641Z,4.50
2024-04-06T19:36:16.056Z,5.90
2024-04-06T19:41:15.448Z,5.00
2024-04-06T19:43:45.630Z,5.00
2024-04-06T19:46:16.197Z,4.30
2024-04-06T19:48:46.464Z,4.50
2024-04-06T19:51:16.761Z,4.40
2024-04-06T19:53:47.320Z,4.00
2024-04-06T19:56:17.542Z,4.00
2024-04-06T19:58:50.236Z,3.70
2024-04-06T20:01:20.986Z,4.20
2024-04-06T20:03:51.266Z,3.70
2024-04-06T20:06:21.534Z,4.00
2024-04-06T20:09:06.501Z,3.70
2024-04-06T20:11:37.073Z,5.20
2024-04-06T20:14:07.285Z,5.70
2024-04-06T20:16:37.600Z,5.80
2024-04-06T20:19:07.984Z,5.30
2024-04-06T20:21:38.794Z,5.40
2024-04-06T20:24:27.732Z,5.10
2024-04-06T20:26:58.126Z,4.20
2024-04-06T20:29:28.255Z,4.90
2024-04-06T20:31:59.301Z,4.10
2024-04-06T20:34:30.697Z,3.60
2024-04-06T20:37:07.582Z,3.80
2024-04-06T20:39:38.467Z,4.30
2024-04-06T20:42:08.989Z,5.00
2024-04-06T20:44:39.262Z,4.60
2024-04-06T20:47:09.525Z,4.20
2024-04-06T20:49:39.796Z,4.00
2024-04-06T20:52:12.593Z,4.20
2024-04-06T20:54:42.768Z,5.10
2024-04-06T20:57:12.938Z,4.20
2024-04-06T20:59:43.134Z,5.00
2024-04-06T21:02:13.358Z,4.60
2024-04-06T21:04:43.536Z,4.40
2024-04-06T21:07:13.820Z,4.40
2024-04-06T21:09:44.421Z,5.80
2024-04-06T21:12:14.978Z,5.20
2024-04-06T21:14:45.648Z,4.20
2024-04-06T21:17:15.971Z,4.40
2024-04-06T21:19:46.397Z,5.60
2024-04-06T21:22:16.658Z,4.70
2024-04-06T21:24:46.900Z,4.80
2024-04-06T21:27:17.244Z,5.50
2024-04-06T21:29:50.268Z,5.20
2024-04-06T21:32:22.408Z,5.50
2024-04-06T21:34:52.526Z,4.80
2024-04-06T21:37:22.667Z,5.80
2024-04-06T21:39:53.463Z,5.50
2024-04-06T21:42:23.703Z,6.10
2024-04-06T21:44:53.790Z,5.10
2024-04-06T21:47:24.268Z,5.80
2024-04-06T21:49:54.503Z,5.40
2024-04-06T21:52:24.704Z,5.90
2024-04-06T21:54:54.867Z,6.00
2024-04-06T21:57:25.537Z,5.40
2024-04-06T22:00:08.087Z,5.90
2024-04-06T22:02:43.388Z,5.80
2024-04-06T22:05:14.116Z,6.00
2024-04-06T22:07:44.353Z,5.20
2024-04-06T22:10:14.639Z,5.80
2024-04-06T22:12:44.886Z,5.10
2024-04-06T22:15:15.514Z,5.60
2024-04-06T22:17:45.786Z,5.00
2024-04-06T22:20:16.078Z,5.40
2024-04-06T22:22:46.508Z,5.80
2024-04-06T22:25:16.736Z,5.20
2024-04-06T22:27:47.044Z,5.80
2024-04-06T22:30:17.564Z,5.10
2024-04-06T22:32:47.689Z,5.00
2024-04-06T22:35:18.200Z,5.90
2024-04-06T22:37:48.359Z,5.50
2024-04-06T22:40:22.222Z,5.40
2024-04-06T22:42:52.377Z,5.30
2024-04-06T22:45:22.506Z,5.10
2024-04-06T22:47:52.693Z,5.20
2024-04-06T22:50:23.209Z,4.40
2024-04-06T22:52:53.433Z,4.70
2024-04-06T22:55:23.670Z,3.90
2024-04-06T22:57:53.813Z,3.80
2024-04-06T23:00:24.343Z,4.70
2024-04-06T23:02:54.539Z,4.20
2024-04-06T23:05:24.760Z,4.10
2024-04-06T23:07:54.966Z,3.90
2024-04-06T23:10:25.235Z,4.00
2024-04-06T23:12:55.543Z,3.00
2024-04-06T23:15:25.669Z,3.30
2024-04-06T23:17:55.871Z,3.40
2024-04-06T23:20:26.930Z,3.10
2024-04-06T23:22:57.218Z,2.90
2024-04-06T23:25:27.748Z,2.60
2024-04-06T23:27:57.938Z,2.80
2024-04-06T23:30:28.124Z,3.00
2024-04-06T23:32:58.421Z,2.50
2024-04-06T23:35:29.147Z,2.70
2024-04-06T23:37:59.384Z,2.90
2024-04-06T23:40:29.635Z,2.80
2024-04-06T23:43:00.332Z,3.10
2024-04-06T23:45:30.482Z,3.30
2024-04-06T23:48:00.679Z,3.00
2024-04-06T23:50:31.339Z,3.40
2024-04-06T23:53:02.083Z,3.50
2024-04-06T23:55:32.487Z,3.50
2024-04-06T23:58:03.511Z,3.40
